createdAt,value
2019-03-02T00:00:19.253Z,0
2019-03-02T00:01:19.659Z,0
2019-03-02T00:02:33.159Z,0
2019-03-02T00:03:38.155Z,0
2019-03-02T00:03:45.044Z,0
2019-03-02T00:04:51.619Z,0
2019-03-02T00:04:58.190Z,0
2019-03-02T00:06:04.259Z,0
2019-03-02T00:06:10.805Z,0
2019-03-02T00:07:14.443Z,0
2019-03-02T00:08:14.400Z,0
2019-03-02T00:09:15.085Z,0
2019-03-02T00:10:15.215Z,0
2019-03-02T00:11:28.502Z,0
2019-03-02T00:12:34.858Z,0
2019-03-02T00:12:40.806Z,0
2019-03-02T00:13:46.767Z,0
2019-03-02T00:14:46.186Z,0
2019-03-02T00:15:46.321Z,0
2019-03-02T00:16:47.732Z,0
2019-03-02T00:18:02.322Z,0
2019-03-02T00:19:13.026Z,0
2019-03-02T00:20:25.714Z,0
2019-03-02T00:21:38.604Z,0
2019-03-02T00:22:51.511Z,0
2019-03-02T00:23:56.898Z,0
2019-03-02T00:25:05.543Z,0
2019-03-02T00:26:12.769Z,0
2019-03-02T00:26:18.705Z,0
2019-03-02T00:27:24.535Z,0
2019-03-02T00:28:23.940Z,0
2019-03-02T00:29:24.648Z,0
2019-03-02T00:30:25.619Z,0
2019-03-02T00:31:33.226Z,0
2019-03-02T00:31:38.907Z,0
2019-03-02T00:32:51.695Z,0
2019-03-02T00:34:04.572Z,0
2019-03-02T00:35:10.333Z,0
2019-03-02T00:36:11.127Z,0
2019-03-02T00:37:10.814Z,0
2019-03-02T00:38:12.458Z,0
2019-03-02T00:39:19.051Z,0
2019-03-02T00:39:26.208Z,0
2019-03-02T00:40:38.085Z,0
2019-03-02T00:41:44.953Z,0
2019-03-02T00:41:51.679Z,0
2019-03-02T00:42:54.661Z,0
2019-03-02T00:43:54.283Z,0
2019-03-02T00:44:54.698Z,0
2019-03-02T00:45:57.696Z,0
2019-03-02T00:47:02.232Z,0
2019-03-02T00:47:08.694Z,0
2019-03-02T00:48:15.078Z,0
2019-03-02T00:48:22.104Z,0
2019-03-02T00:49:25.627Z,0
2019-03-02T00:50:26.030Z,0
2019-03-02T00:51:27.007Z,0
2019-03-02T00:52:27.520Z,0
2019-03-02T00:53:27.223Z,0
2019-03-02T00:54:28.184Z,0
2019-03-02T00:55:33.934Z,0
2019-03-02T00:55:42.231Z,0
2019-03-02T00:56:45.529Z,0
2019-03-02T00:57:46.502Z,0
2019-03-02T00:58:47.201Z,0
2019-03-02T00:59:47.887Z,0
2019-03-02T01:01:00.886Z,0
2019-03-02T01:02:07.528Z,0
2019-03-02T01:02:13.462Z,0
2019-03-02T01:03:18.427Z,0
2019-03-02T01:04:17.833Z,0
2019-03-02T01:05:18.792Z,0
2019-03-02T01:06:19.200Z,0
2019-03-02T01:07:32.922Z,0
2019-03-02T01:08:37.303Z,0
2019-03-02T01:09:35.044Z,0
2019-03-02T01:10:35.171Z,0
2019-03-02T01:11:36.867Z,0
2019-03-02T01:12:50.879Z,0
2019-03-02T01:13:53.615Z,0
2019-03-02T01:14:02.505Z,0
2019-03-02T01:15:15.119Z,0
2019-03-02T01:16:27.963Z,0
2019-03-02T01:17:33.360Z,0
2019-03-02T01:18:33.765Z,0
2019-03-02T01:19:35.727Z,0
2019-03-02T01:20:36.414Z,0
2019-03-02T01:21:49.142Z,0
2019-03-02T01:22:54.689Z,0
2019-03-02T01:23:51.651Z,0
2019-03-02T01:24:52.055Z,0
2019-03-02T01:25:53.744Z,0
2019-03-02T01:27:06.743Z,0
2019-03-02T01:28:12.287Z,0
2019-03-02T01:28:19.170Z,0
2019-03-02T01:29:21.987Z,0
2019-03-02T01:30:22.391Z,0
2019-03-02T01:31:23.135Z,0
2019-03-02T01:32:23.544Z,0
2019-03-02T01:33:35.989Z,0
2019-03-02T01:34:48.045Z,0
2019-03-02T01:35:48.623Z,0
2019-03-02T01:36:49.308Z,0
2019-03-02T01:37:49.995Z,0
2019-03-02T01:38:57.072Z,0
2019-03-02T01:39:02.751Z,0
2019-03-02T01:40:08.042Z,0
2019-03-02T01:41:07.460Z,0
2019-03-02T01:42:08.423Z,0
2019-03-02T01:43:09.120Z,0
2019-03-02T01:44:09.247Z,0
2019-03-02T01:45:10.019Z,0
2019-03-02T01:46:10.148Z,0
2019-03-02T01:47:23.314Z,0
2019-03-02T01:48:29.813Z,0
2019-03-02T01:48:38.042Z,0
2019-03-02T01:49:39.281Z,0
2019-03-02T01:50:39.412Z,0
2019-03-02T01:51:40.537Z,0
2019-03-02T01:52:41.775Z,0
2019-03-02T01:53:48.503Z,0
2019-03-02T01:53:53.943Z,0
2019-03-02T01:54:59.003Z,0
2019-03-02T01:55:58.417Z,0
2019-03-02T01:56:59.374Z,0
2019-03-02T01:57:59.779Z,0
2019-03-02T01:59:12.506Z,0
2019-03-02T02:00:16.099Z,0
2019-03-02T02:01:17.113Z,0
2019-03-02T02:02:17.823Z,0
2019-03-02T02:03:18.784Z,0
2019-03-02T02:04:25.488Z,0
2019-03-02T02:04:30.651Z,0
2019-03-02T02:05:34.634Z,0
2019-03-02T02:06:35.039Z,0
2019-03-02T02:07:35.444Z,0
2019-03-02T02:08:35.886Z,0
2019-03-02T02:09:48.603Z,0
2019-03-02T02:10:49.739Z,0
2019-03-02T02:11:55.858Z,0
2019-03-02T02:12:01.107Z,0
2019-03-02T02:13:14.974Z,0
2019-03-02T02:14:21.247Z,0
2019-03-02T02:14:27.562Z,0
2019-03-02T02:15:32.213Z,0
2019-03-02T02:16:32.622Z,0
2019-03-02T02:17:33.308Z,0
2019-03-02T02:18:34.008Z,0
2019-03-02T02:19:46.727Z,0
2019-03-02T02:20:53.798Z,0
2019-03-02T02:20:59.610Z,0
2019-03-02T02:22:04.670Z,0
2019-03-02T02:23:01.799Z,0
2019-03-02T02:24:03.481Z,0
2019-03-02T02:25:04.409Z,0
2019-03-02T02:26:17.412Z,0
2019-03-02T02:27:30.049Z,0
2019-03-02T02:28:35.205Z,0
2019-03-02T02:29:34.899Z,0
2019-03-02T02:30:35.584Z,0
2019-03-02T02:31:48.276Z,0
2019-03-02T02:32:33.831Z,0
2019-03-02T02:33:42.193Z,0
2019-03-02T02:33:46.777Z,0
2019-03-02T02:34:32.463Z,0
2019-03-02T02:35:46.245Z,0
2019-03-02T02:36:46.523Z,0
2019-03-02T02:37:47.038Z,0
2019-03-02T02:39:00.427Z,0
2019-03-02T02:40:01.570Z,0
2019-03-02T02:41:01.825Z,0
2019-03-02T02:42:13.658Z,0
2019-03-02T02:43:26.858Z,0
2019-03-02T02:44:27.244Z,0
2019-03-02T02:45:29.143Z,0
2019-03-02T02:46:41.425Z,0
2019-03-02T02:47:56.991Z,0
2019-03-02T02:48:55.583Z,0
2019-03-02T02:49:56.268Z,0
2019-03-02T02:50:57.856Z,0
2019-03-02T02:51:58.409Z,0
2019-03-02T02:53:11.450Z,0
2019-03-02T02:54:11.893Z,0
2019-03-02T02:55:13.132Z,0
2019-03-02T02:56:27.441Z,0
2019-03-02T02:57:37.927Z,0
2019-03-02T02:57:41.239Z,0
2019-03-02T02:58:26.797Z,0
2019-03-02T02:59:27.219Z,0
2019-03-02T03:00:28.237Z,0
2019-03-02T03:01:40.957Z,0
2019-03-02T03:02:41.374Z,0
2019-03-02T03:03:42.061Z,0
2019-03-02T03:04:43.302Z,0
2019-03-02T03:05:43.992Z,0
2019-03-02T03:05:57.986Z,0
2019-03-02T03:06:56.672Z,0
2019-03-02T03:07:58.371Z,0
2019-03-02T03:08:59.903Z,0
2019-03-02T03:10:00.435Z,0
2019-03-02T03:11:12.984Z,0
2019-03-02T03:12:12.394Z,0
2019-03-02T03:13:13.392Z,0
2019-03-02T03:14:26.393Z,0
2019-03-02T03:15:27.412Z,0
2019-03-02T03:15:41.559Z,0
2019-03-02T03:16:40.092Z,0
2019-03-02T03:17:41.637Z,0
2019-03-02T03:18:41.353Z,0
2019-03-02T03:19:42.868Z,0
2019-03-02T03:20:54.800Z,0
2019-03-02T03:21:54.754Z,0
2019-03-02T03:22:55.764Z,0
2019-03-02T03:24:09.880Z,0
2019-03-02T03:25:21.648Z,0
2019-03-02T03:26:06.643Z,0
2019-03-02T03:27:18.707Z,0
2019-03-02T03:28:19.718Z,0
2019-03-02T03:29:20.237Z,0
2019-03-02T03:30:47.185Z,0
2019-03-02T03:31:34.832Z,0
2019-03-02T03:32:22.529Z,0
2019-03-02T03:33:09.179Z,0
2019-03-02T03:33:54.905Z,0
2019-03-02T03:34:40.912Z,0
2019-03-02T03:35:27.054Z,0
2019-03-02T03:36:39.098Z,0
2019-03-02T03:37:40.001Z,0
2019-03-02T03:38:40.569Z,0
2019-03-02T03:39:53.146Z,0
2019-03-02T03:40:53.991Z,0
2019-03-02T03:41:54.282Z,0
2019-03-02T03:43:07.037Z,0
2019-03-02T03:43:52.237Z,0
2019-03-02T03:44:53.631Z,0
2019-03-02T03:45:53.323Z,0
2019-03-02T03:47:06.651Z,0
2019-03-02T03:48:07.505Z,0
2019-03-02T03:49:09.353Z,0
2019-03-02T03:50:22.639Z,0
2019-03-02T03:51:35.427Z,0
2019-03-02T03:52:36.248Z,0
2019-03-02T03:53:35.947Z,0
2019-03-02T03:54:48.969Z,0
2019-03-02T03:55:34.439Z,0
2019-03-02T03:56:46.458Z,0
2019-03-02T03:57:47.463Z,0
2019-03-02T03:58:47.704Z,0
2019-03-02T03:59:58.543Z,0
2019-03-02T04:00:03.098Z,0
2019-03-02T04:00:48.995Z,0
2019-03-02T04:02:00.829Z,0
2019-03-02T04:03:02.985Z,0
2019-03-02T04:04:03.146Z,0
2019-03-02T04:05:15.451Z,0
2019-03-02T04:06:16.920Z,0
2019-03-02T04:07:18.001Z,0
2019-03-02T04:08:19.081Z,0
2019-03-02T04:08:31.850Z,0
2019-03-02T04:09:18.532Z,0
2019-03-02T04:10:30.381Z,0
2019-03-02T04:11:32.260Z,0
2019-03-02T04:12:33.098Z,0
2019-03-02T04:13:39.342Z,0
2019-03-02T04:13:48.798Z,0
2019-03-02T04:14:46.419Z,0
2019-03-02T04:15:46.849Z,0
2019-03-02T04:16:47.533Z,0
2019-03-02T04:17:49.118Z,0
2019-03-02T04:19:02.011Z,0
2019-03-02T04:20:02.561Z,0
2019-03-02T04:21:02.527Z,0
2019-03-02T04:22:13.752Z,0
2019-03-02T04:23:26.641Z,0
2019-03-02T04:24:27.195Z,0
2019-03-02T04:25:28.158Z,0
2019-03-02T04:26:41.686Z,0
2019-03-02T04:27:41.608Z,0
2019-03-02T04:28:41.866Z,0
2019-03-02T04:29:57.828Z,0
2019-03-02T04:30:55.470Z,0
2019-03-02T04:31:54.886Z,0
2019-03-02T04:32:56.150Z,0
2019-03-02T04:33:56.111Z,0
2019-03-02T04:35:02.006Z,0
2019-03-02T04:35:08.844Z,0
2019-03-02T04:36:13.678Z,0
2019-03-02T04:37:13.962Z,0
2019-03-02T04:38:14.093Z,0
2019-03-02T04:39:18.077Z,0
2019-03-02T04:40:31.480Z,0
2019-03-02T04:41:29.698Z,0
2019-03-02T04:42:30.384Z,0
2019-03-02T04:43:31.348Z,0
2019-03-02T04:44:33.203Z,0
2019-03-02T04:45:45.927Z,0
2019-03-02T04:46:58.232Z,0
2019-03-02T04:48:10.706Z,0
2019-03-02T04:49:17.733Z,0
2019-03-02T04:49:24.602Z,0
2019-03-02T04:50:30.514Z,0
2019-03-02T04:51:29.919Z,0
2019-03-02T04:52:30.340Z,0
2019-03-02T04:53:31.325Z,0
2019-03-02T04:54:46.047Z,0
2019-03-02T04:55:51.274Z,0
2019-03-02T04:56:48.955Z,0
2019-03-02T04:57:49.364Z,0
2019-03-02T04:58:50.050Z,0
2019-03-02T04:59:53.607Z,0
2019-03-02T05:00:02.790Z,0
2019-03-02T05:01:09.508Z,0
2019-03-02T05:01:15.097Z,0
2019-03-02T05:02:21.826Z,0
2019-03-02T05:02:28.723Z,0
2019-03-02T05:03:28.256Z,0
2019-03-02T05:04:34.499Z,0
2019-03-02T05:04:41.716Z,0
2019-03-02T05:05:46.030Z,0
2019-03-02T05:06:50.519Z,0
2019-03-02T05:06:59.149Z,0
2019-03-02T05:08:12.148Z,0
2019-03-02T05:09:19.382Z,0
2019-03-02T05:09:24.720Z,0
2019-03-02T05:10:32.014Z,0
2019-03-02T05:10:37.799Z,0
2019-03-02T05:11:43.389Z,0
2019-03-02T05:12:42.795Z,0
2019-03-02T05:13:43.477Z,0
2019-03-02T05:14:44.996Z,0
2019-03-02T05:15:45.237Z,0
2019-03-02T05:16:45.545Z,0
2019-03-02T05:17:46.534Z,0
2019-03-02T05:18:59.535Z,0
2019-03-02T05:20:12.615Z,0
2019-03-02T05:21:13.442Z,0
2019-03-02T05:22:21.344Z,0
2019-03-02T05:22:27.664Z,0
2019-03-02T05:23:32.857Z,0
2019-03-02T05:24:30.547Z,0
2019-03-02T05:25:30.955Z,0
2019-03-02T05:26:31.641Z,0
2019-03-02T05:27:34.781Z,0
2019-03-02T05:28:34.963Z,0
2019-03-02T05:29:35.370Z,0
2019-03-02T05:30:36.051Z,0
2019-03-02T05:31:48.772Z,0
2019-03-02T05:32:55.428Z,0
2019-03-02T05:33:02.512Z,0
2019-03-02T05:34:08.320Z,0
2019-03-02T05:34:15.642Z,0
2019-03-02T05:35:18.936Z,0
2019-03-02T05:36:18.365Z,0
2019-03-02T05:37:19.647Z,0
2019-03-02T05:38:19.897Z,0
2019-03-02T05:39:20.582Z,0
2019-03-02T05:40:24.361Z,0
2019-03-02T05:40:33.153Z,0
2019-03-02T05:41:45.243Z,0
2019-03-02T05:42:58.386Z,0
2019-03-02T05:43:59.501Z,0
2019-03-02T05:45:00.238Z,0
2019-03-02T05:46:00.914Z,0
2019-03-02T05:47:05.227Z,0
2019-03-02T05:48:08.566Z,0
2019-03-02T05:49:07.532Z,0
2019-03-02T05:50:07.212Z,0
2019-03-02T05:51:09.986Z,0
2019-03-02T05:52:11.240Z,0
2019-03-02T05:52:22.436Z,0
2019-03-02T05:53:23.189Z,0
2019-03-02T05:54:24.359Z,0
2019-03-02T05:55:24.767Z,0
2019-03-02T05:56:31.328Z,0
2019-03-02T05:56:38.046Z,0
2019-03-02T05:57:42.868Z,0
2019-03-02T05:58:39.557Z,0
2019-03-02T05:59:39.686Z,0
2019-03-02T06:00:41.110Z,0
2019-03-02T06:01:43.385Z,0
2019-03-02T06:02:44.083Z,0
2019-03-02T06:03:48.695Z,0
2019-03-02T06:04:49.105Z,0
2019-03-02T06:05:49.788Z,0
2019-03-02T06:07:03.105Z,0
2019-03-02T06:08:03.209Z,0
2019-03-02T06:09:04.169Z,0
2019-03-02T06:10:04.892Z,0
2019-03-02T06:11:08.355Z,0
2019-03-02T06:12:06.320Z,0
2019-03-02T06:13:06.723Z,0
2019-03-02T06:14:09.034Z,0
2019-03-02T06:15:11.070Z,0
2019-03-02T06:16:11.313Z,0
2019-03-02T06:17:11.445Z,0
2019-03-02T06:18:12.281Z,0
2019-03-02T06:19:23.209Z,0
2019-03-02T06:19:26.035Z,0
2019-03-02T06:20:26.816Z,0
2019-03-02T06:21:27.784Z,0
2019-03-02T06:22:27.198Z,0
2019-03-02T06:23:32.317Z,0
2019-03-02T06:24:29.280Z,0
2019-03-02T06:25:29.694Z,0
2019-03-02T06:26:42.133Z,0
2019-03-02T06:27:55.262Z,0
2019-03-02T06:29:00.100Z,0
2019-03-02T06:29:07.549Z,0
2019-03-02T06:30:11.154Z,5.63
2019-03-02T06:31:11.840Z,5.63
2019-03-02T06:32:12.525Z,5.63
2019-03-02T06:33:13.211Z,5.63
2019-03-02T06:34:25.392Z,5.63
2019-03-02T06:35:38.562Z,5.63
2019-03-02T06:36:50.453Z,5.63
2019-03-02T06:38:02.435Z,5.63
2019-03-02T06:39:16.165Z,5.63
2019-03-02T06:40:28.743Z,5.63
2019-03-02T06:41:41.614Z,11.25
2019-03-02T06:42:48.331Z,11.25
2019-03-02T06:42:55.844Z,11.25
2019-03-02T06:44:00.494Z,11.25
2019-03-02T06:44:06.783Z,11.25
2019-03-02T06:45:12.505Z,16.88
2019-03-02T06:46:19.804Z,16.88
2019-03-02T06:46:25.012Z,16.88
2019-03-02T06:47:25.055Z,22.5
2019-03-02T06:48:26.461Z,22.5
2019-03-02T06:49:26.593Z,22.5
2019-03-02T06:50:27.558Z,22.5
2019-03-02T06:51:28.522Z,22.5
2019-03-02T06:52:28.934Z,22.5
2019-03-02T06:53:29.616Z,22.5
2019-03-02T06:54:29.750Z,22.5
2019-03-02T06:55:31.005Z,28.13
2019-03-02T06:56:43.577Z,28.13
2019-03-02T06:57:56.937Z,33.75
2019-03-02T06:58:56.973Z,33.75
2019-03-02T06:59:57.381Z,39.38
2019-03-02T07:00:57.786Z,39.38
2019-03-02T07:02:02.961Z,45
2019-03-02T07:03:02.974Z,45
2019-03-02T07:04:03.386Z,50.63
2019-03-02T07:05:04.911Z,50.63
2019-03-02T07:06:04.601Z,56.25
2019-03-02T07:07:07.316Z,56.25
2019-03-02T07:08:06.573Z,56.25
2019-03-02T07:09:12.601Z,61.88
2019-03-02T07:09:19.431Z,61.88
2019-03-02T07:10:25.428Z,67.5
2019-03-02T07:11:25.114Z,73.13
2019-03-02T07:12:25.247Z,67.5
2019-03-02T07:13:25.935Z,56.25
2019-03-02T07:14:38.675Z,56.25
2019-03-02T07:15:51.537Z,61.88
2019-03-02T07:16:58.829Z,67.5
2019-03-02T07:17:05.951Z,67.5
2019-03-02T07:18:10.149Z,67.5
2019-03-02T07:19:16.666Z,67.5
2019-03-02T07:19:24.154Z,61.88
2019-03-02T07:20:30.128Z,56.25
2019-03-02T07:20:36.038Z,56.25
2019-03-02T07:21:47.794Z,56.25
2019-03-02T07:23:00.101Z,56.25
2019-03-02T07:24:00.635Z,56.25
2019-03-02T07:25:07.697Z,56.25
2019-03-02T07:25:16.261Z,56.25
2019-03-02T07:26:28.124Z,56.25
2019-03-02T07:27:32.249Z,56.25
2019-03-02T07:28:32.942Z,61.88
2019-03-02T07:29:34.717Z,61.88
2019-03-02T07:30:35.403Z,61.88
2019-03-02T07:31:36.089Z,67.5
2019-03-02T07:32:36.495Z,67.5
2019-03-02T07:33:36.905Z,67.5
2019-03-02T07:34:40.656Z,73.13
2019-03-02T07:34:49.354Z,73.13
2019-03-02T07:36:02.190Z,73.13
2019-03-02T07:37:02.096Z,73.13
2019-03-02T07:38:03.075Z,78.75
2019-03-02T07:39:03.771Z,78.75
2019-03-02T07:40:17.304Z,84.38
2019-03-02T07:41:30.724Z,90
2019-03-02T07:42:36.744Z,84.38
2019-03-02T07:42:42.594Z,78.75
2019-03-02T07:43:49.621Z,78.75
2019-03-02T07:43:55.498Z,78.75
2019-03-02T07:45:01.891Z,78.75
2019-03-02T07:45:08.654Z,78.75
2019-03-02T07:46:14.622Z,78.75
2019-03-02T07:46:21.339Z,84.38
2019-03-02T07:47:26.894Z,78.75
2019-03-02T07:47:33.300Z,78.75
2019-03-02T07:48:39.027Z,84.38
2019-03-02T07:49:35.715Z,84.38
2019-03-02T07:50:37.124Z,84.38
2019-03-02T07:51:44.331Z,78.75
2019-03-02T07:51:49.854Z,78.75
2019-03-02T07:52:55.914Z,78.75
2019-03-02T07:53:53.600Z,78.75
2019-03-02T07:55:06.058Z,78.75
2019-03-02T07:56:06.611Z,78.75
2019-03-02T07:57:11.582Z,78.75
2019-03-02T07:58:24.054Z,84.38
2019-03-02T07:59:36.732Z,78.75
2019-03-02T08:00:43.715Z,78.75
2019-03-02T08:00:49.893Z,78.75
2019-03-02T08:01:55.284Z,78.75
2019-03-02T08:02:02.356Z,78.75
2019-03-02T08:03:03.191Z,84.38
2019-03-02T08:04:04.164Z,84.38
2019-03-02T08:05:05.130Z,84.38
2019-03-02T08:06:06.110Z,84.38
2019-03-02T08:07:07.923Z,84.38
2019-03-02T08:08:20.937Z,84.38
2019-03-02T08:09:34.078Z,78.75
2019-03-02T08:10:46.960Z,78.75
2019-03-02T08:11:52.497Z,73.13
2019-03-02T08:12:52.462Z,73.13
2019-03-02T08:13:53.150Z,73.13
2019-03-02T08:14:53.860Z,73.13
2019-03-02T08:16:07.360Z,73.13
2019-03-02T08:17:20.319Z,73.13
2019-03-02T08:18:33.825Z,78.75
2019-03-02T08:19:34.947Z,78.75
2019-03-02T08:20:35.633Z,78.75
2019-03-02T08:21:38.724Z,78.75
2019-03-02T08:22:51.009Z,78.75
2019-03-02T08:23:51.415Z,78.75
2019-03-02T08:24:53.105Z,78.75
2019-03-02T08:25:54.073Z,73.13
2019-03-02T08:26:53.487Z,78.75
2019-03-02T08:27:55.181Z,78.75
2019-03-02T08:28:55.590Z,84.38
2019-03-02T08:30:00.512Z,90
2019-03-02T08:31:00.926Z,90
2019-03-02T08:32:02.727Z,90
2019-03-02T08:33:02.139Z,95.63
2019-03-02T08:34:09.658Z,95.63
2019-03-02T08:34:14.970Z,95.63
2019-03-02T08:35:16.153Z,95.63
2019-03-02T08:36:20.386Z,95.63
2019-03-02T08:37:19.525Z,95.63
2019-03-02T08:38:20.772Z,95.63
2019-03-02T08:39:21.029Z,101.25
2019-03-02T08:40:26.676Z,101.25
2019-03-02T08:41:27.522Z,106.88
2019-03-02T08:42:27.938Z,106.88
2019-03-02T08:43:28.636Z,106.88
2019-03-02T08:44:29.338Z,106.88
2019-03-02T08:45:33.995Z,106.88
2019-03-02T08:46:35.667Z,112.5
2019-03-02T08:47:35.670Z,118.13
2019-03-02T08:48:36.088Z,123.75
2019-03-02T08:49:49.103Z,129.38
2019-03-02T08:51:01.252Z,135
2019-03-02T08:52:02.904Z,140.63
2019-03-02T08:53:02.877Z,140.63
2019-03-02T08:54:03.289Z,146.25
2019-03-02T08:55:03.703Z,146.25
2019-03-02T08:56:16.889Z,151.88
2019-03-02T08:57:31.433Z,151.88
2019-03-02T08:58:32.887Z,151.88
2019-03-02T08:59:45.357Z,146.25
2019-03-02T09:00:46.559Z,146.25
2019-03-02T09:01:47.528Z,140.63
2019-03-02T09:02:47.691Z,140.63
2019-03-02T09:03:48.384Z,140.63
2019-03-02T09:04:53.207Z,146.25
2019-03-02T09:05:56.043Z,151.88
2019-03-02T09:06:14.681Z,151.88
2019-03-02T09:07:15.080Z,157.5
2019-03-02T09:08:15.212Z,151.88
2019-03-02T09:09:16.902Z,157.5
2019-03-02T09:10:17.595Z,163.13
2019-03-02T09:11:18.566Z,163.13
2019-03-02T09:12:24.791Z,163.13
2019-03-02T09:12:31.866Z,163.13
2019-03-02T09:13:37.601Z,157.5
2019-03-02T09:13:43.762Z,157.5
2019-03-02T09:14:56.497Z,151.88
2019-03-02T09:16:01.249Z,151.88
2019-03-02T09:16:09.150Z,151.88
2019-03-02T09:17:10.270Z,157.5
2019-03-02T09:18:10.682Z,157.5
2019-03-02T09:19:11.094Z,157.5
2019-03-02T09:20:12.928Z,163.13
2019-03-02T09:21:16.021Z,168.75
2019-03-02T09:22:15.480Z,174.38
2019-03-02T09:23:17.260Z,185.63
2019-03-02T09:24:19.527Z,191.25
2019-03-02T09:25:27.676Z,196.88
2019-03-02T09:25:31.991Z,196.88
2019-03-02T09:26:31.003Z,202.5
2019-03-02T09:27:32.528Z,208.13
2019-03-02T09:28:32.229Z,225
2019-03-02T09:29:33.201Z,236.25
2019-03-02T09:30:33.616Z,247.5
2019-03-02T09:31:41.431Z,258.75
2019-03-02T09:31:48.932Z,258.75
2019-03-02T09:33:00.103Z,270
2019-03-02T09:34:06.987Z,275.63
2019-03-02T09:34:12.731Z,281.25
2019-03-02T09:35:18.872Z,286.88
2019-03-02T09:35:25.904Z,286.88
2019-03-02T09:36:38.553Z,286.88
2019-03-02T09:37:50.991Z,281.25
2019-03-02T09:39:03.515Z,270
2019-03-02T09:40:13.329Z,275.63
2019-03-02T09:40:16.886Z,275.63
2019-03-02T09:41:16.856Z,286.88
2019-03-02T09:42:17.268Z,292.5
2019-03-02T09:43:19.007Z,298.13
2019-03-02T09:44:19.434Z,281.25
2019-03-02T09:45:20.423Z,264.38
2019-03-02T09:46:32.899Z,247.5
2019-03-02T09:47:17.295Z,236.25
2019-03-02T09:48:30.047Z,225
2019-03-02T09:49:43.287Z,219.38
2019-03-02T09:50:44.254Z,219.38
2019-03-02T09:51:50.940Z,230.63
2019-03-02T09:51:59.069Z,230.63
2019-03-02T09:52:59.172Z,241.88
2019-03-02T09:53:59.867Z,253.13
2019-03-02T09:55:00.663Z,253.13
2019-03-02T09:56:01.685Z,253.13
2019-03-02T09:57:03.001Z,258.75
2019-03-02T09:58:03.268Z,258.75
2019-03-02T09:59:05.073Z,247.5
2019-03-02T10:00:06.769Z,241.88
2019-03-02T10:01:07.463Z,230.63
2019-03-02T10:02:20.769Z,230.63
2019-03-02T10:03:32.627Z,241.88
2019-03-02T10:04:45.355Z,253.13
2019-03-02T10:05:53.082Z,275.63
2019-03-02T10:05:59.078Z,270
2019-03-02T10:07:05.135Z,281.25
2019-03-02T10:07:11.519Z,281.25
2019-03-02T10:08:16.583Z,309.38
2019-03-02T10:09:16.555Z,298.13
2019-03-02T10:10:17.295Z,298.13
2019-03-02T10:11:17.714Z,292.5
2019-03-02T10:12:18.460Z,292.5
2019-03-02T10:13:20.152Z,281.25
2019-03-02T10:14:34.960Z,275.63
2019-03-02T10:15:32.974Z,275.63
2019-03-02T10:16:35.341Z,286.88
2019-03-02T10:17:41.237Z,292.5
2019-03-02T10:17:48.491Z,292.5
2019-03-02T10:18:52.776Z,298.13
2019-03-02T10:19:52.469Z,298.13
2019-03-02T10:20:52.606Z,303.75
2019-03-02T10:21:54.030Z,309.38
2019-03-02T10:22:55.566Z,309.38
2019-03-02T10:23:56.269Z,303.75
2019-03-02T10:24:56.418Z,303.75
2019-03-02T10:26:03.677Z,303.75
2019-03-02T10:26:11.234Z,303.75
2019-03-02T10:27:10.824Z,309.38
2019-03-02T10:28:11.799Z,315
2019-03-02T10:29:13.792Z,320.63
2019-03-02T10:30:14.488Z,315
2019-03-02T10:31:15.499Z,292.5
2019-03-02T10:32:16.198Z,286.88
2019-03-02T10:33:16.350Z,281.25
2019-03-02T10:34:19.331Z,292.5
2019-03-02T10:35:20.044Z,315
2019-03-02T10:36:20.300Z,315
2019-03-02T10:37:21.699Z,309.38
2019-03-02T10:38:22.203Z,303.75
2019-03-02T10:39:22.621Z,315
2019-03-02T10:40:25.692Z,331.88
2019-03-02T10:41:25.833Z,331.88
2019-03-02T10:42:27.247Z,320.63
2019-03-02T10:43:28.777Z,309.38
2019-03-02T10:44:29.763Z,309.38
2019-03-02T10:45:29.908Z,292.5
2019-03-02T10:46:31.879Z,292.5
2019-03-02T10:47:31.425Z,286.88
2019-03-02T10:48:32.851Z,292.5
2019-03-02T10:49:33.272Z,292.5
2019-03-02T10:50:33.968Z,286.88
2019-03-02T10:51:39.926Z,275.63
2019-03-02T10:51:48.813Z,281.25
2019-03-02T10:52:51.608Z,264.38
2019-03-02T10:53:49.306Z,258.75
2019-03-02T10:54:49.722Z,258.75
2019-03-02T10:55:51.828Z,258.75
2019-03-02T10:56:52.527Z,253.13
2019-03-02T10:57:53.775Z,253.13
2019-03-02T10:58:53.920Z,247.5
2019-03-02T10:59:55.334Z,241.88
2019-03-02T11:00:55.748Z,241.88
2019-03-02T11:01:56.444Z,241.88
2019-03-02T11:02:59.455Z,236.25
2019-03-02T11:03:59.151Z,230.63
2019-03-02T11:04:59.847Z,225
2019-03-02T11:06:01.140Z,219.38
2019-03-02T11:07:04.972Z,219.38
2019-03-02T11:07:15.034Z,219.38
2019-03-02T11:08:00.194Z,213.75
2019-03-02T11:09:06.747Z,213.75
2019-03-02T11:09:25.134Z,213.75
2019-03-02T11:10:27.807Z,208.13
2019-03-02T11:11:38.571Z,213.75
2019-03-02T11:12:50.757Z,219.38
2019-03-02T11:13:58.041Z,230.63
2019-03-02T11:14:03.662Z,236.25
2019-03-02T11:15:10.025Z,241.88
2019-03-02T11:15:16.871Z,241.88
2019-03-02T11:16:17.854Z,236.25
2019-03-02T11:17:30.618Z,236.25
2019-03-02T11:18:37.389Z,236.25
2019-03-02T11:18:42.411Z,236.25
2019-03-02T11:19:54.822Z,236.25
2019-03-02T11:21:07.511Z,236.25
2019-03-02T11:22:21.993Z,225
2019-03-02T11:23:25.451Z,230.63
2019-03-02T11:24:23.143Z,241.88
2019-03-02T11:25:23.576Z,247.5
2019-03-02T11:26:24.270Z,253.13
2019-03-02T11:27:24.693Z,258.75
2019-03-02T11:28:25.394Z,247.5
2019-03-02T11:29:26.369Z,241.88
2019-03-02T11:30:26.064Z,236.25
2019-03-02T11:31:28.035Z,225
2019-03-02T11:32:29.283Z,225
2019-03-02T11:33:34.150Z,219.38
2019-03-02T11:33:40.896Z,219.38
2019-03-02T11:34:41.290Z,225
2019-03-02T11:35:41.993Z,225
2019-03-02T11:36:55.839Z,219.38
2019-03-02T11:38:07.576Z,225
2019-03-02T11:39:08.300Z,219.38
2019-03-02T11:40:09.711Z,208.13
2019-03-02T11:41:12.743Z,202.5
2019-03-02T11:42:17.329Z,202.5
2019-03-02T11:43:19.204Z,202.5
2019-03-02T11:44:19.623Z,196.88
2019-03-02T11:45:20.888Z,185.63
2019-03-02T11:46:21.584Z,185.63
2019-03-02T11:47:21.722Z,180
2019-03-02T11:48:22.867Z,174.38
2019-03-02T11:49:41.007Z,168.75
2019-03-02T11:50:35.526Z,163.13
2019-03-02T11:51:36.953Z,163.13
2019-03-02T11:52:42.198Z,163.13
2019-03-02T11:53:41.942Z,163.13
2019-03-02T11:54:42.649Z,163.13
2019-03-02T11:55:43.896Z,163.13
2019-03-02T11:56:48.248Z,163.13
2019-03-02T11:57:46.941Z,163.13
2019-03-02T11:58:48.189Z,163.13
2019-03-02T11:59:48.879Z,157.5
2019-03-02T12:00:48.977Z,157.5
2019-03-02T12:01:49.681Z,163.13
2019-03-02T12:02:51.096Z,168.75
2019-03-02T12:03:51.243Z,174.38
2019-03-02T12:04:54.765Z,168.75
2019-03-02T12:05:55.733Z,168.75
2019-03-02T12:06:58.188Z,168.75
2019-03-02T12:07:56.324Z,168.75
2019-03-02T12:09:03.055Z,163.13
2019-03-02T12:09:10.350Z,163.13
2019-03-02T12:10:10.751Z,163.13
2019-03-02T12:11:13.849Z,163.13
2019-03-02T12:12:13.540Z,163.13
2019-03-02T12:13:13.955Z,163.13
2019-03-02T12:14:14.370Z,163.13
2019-03-02T12:15:16.738Z,163.13
2019-03-02T12:16:16.160Z,157.5
2019-03-02T12:17:16.860Z,157.5
2019-03-02T12:18:22.342Z,157.5
2019-03-02T12:19:21.483Z,157.5
2019-03-02T12:20:22.356Z,163.13
2019-03-02T12:21:24.458Z,174.38
2019-03-02T12:22:24.889Z,185.63
2019-03-02T12:23:27.086Z,196.88
2019-03-02T12:24:27.782Z,213.75
2019-03-02T12:25:40.532Z,219.38
2019-03-02T12:26:53.554Z,219.38
2019-03-02T12:28:07.166Z,213.75
2019-03-02T12:29:20.947Z,213.75
2019-03-02T12:30:33.554Z,213.75
2019-03-02T12:31:35.495Z,213.75
2019-03-02T12:32:40.150Z,208.13
2019-03-02T12:32:47.973Z,208.13
2019-03-02T12:33:48.432Z,208.13
2019-03-02T12:34:48.568Z,202.5
2019-03-02T12:35:49.700Z,196.88
2019-03-02T12:36:56.355Z,196.88
2019-03-02T12:37:03.906Z,191.25
2019-03-02T12:38:18.155Z,185.63
2019-03-02T12:39:31.977Z,180
2019-03-02T12:40:31.641Z,174.38
2019-03-02T12:41:32.631Z,174.38
2019-03-02T12:42:34.252Z,168.75
2019-03-02T12:43:36.074Z,168.75
2019-03-02T12:44:36.324Z,168.75
2019-03-02T12:45:37.395Z,168.75
2019-03-02T12:46:37.528Z,174.38
2019-03-02T12:47:38.945Z,180
2019-03-02T12:48:39.078Z,180
2019-03-02T12:49:43.963Z,180
2019-03-02T12:49:52.560Z,180
2019-03-02T12:51:05.835Z,174.38
2019-03-02T12:52:06.083Z,174.38
2019-03-02T12:53:06.776Z,168.75
2019-03-02T12:54:08.644Z,163.13
2019-03-02T12:55:09.622Z,157.5
2019-03-02T12:56:10.035Z,157.5
2019-03-02T12:57:11.578Z,157.5
2019-03-02T12:58:12.560Z,157.5
2019-03-02T12:59:12.974Z,157.5
2019-03-02T13:00:13.943Z,157.5
2019-03-02T13:01:14.643Z,157.5
2019-03-02T13:02:17.108Z,151.88
2019-03-02T13:03:17.802Z,151.88
2019-03-02T13:04:17.940Z,151.88
2019-03-02T13:05:24.415Z,146.25
2019-03-02T13:05:30.418Z,146.25
2019-03-02T13:06:46.031Z,140.63